createdAt,value
2022-11-10T00:00:03.172Z,1020.58
2022-11-10T00:10:00.820Z,1020.65
2022-11-10T00:20:00.822Z,1020.80
2022-11-10T00:30:01.029Z,1020.88
2022-11-10T00:40:01.278Z,1020.87
2022-11-10T00:50:01.123Z,1020.97
2022-11-10T01:00:00.216Z,1020.97
2022-11-10T01:10:01.227Z,1021.09
2022-11-10T01:20:00.157Z,1021.09
2022-11-10T01:30:01.256Z,1021.22
2022-11-10T01:40:01.118Z,1021.39
2022-11-10T01:50:01.582Z,1021.49
2022-11-10T02:00:01.499Z,1021.67
2022-11-10T02:10:00.145Z,1021.78
2022-11-10T02:20:01.110Z,1021.86
2022-11-10T02:30:01.027Z,1021.87
2022-11-10T02:40:01.025Z,1022.01
2022-11-10T02:50:00.174Z,1022.08
2022-11-10T03:00:00.179Z,1022.11
2022-11-10T03:10:00.152Z,1022.31
2022-11-10T03:20:01.484Z,1022.44
2022-11-10T03:30:00.172Z,1022.64
2022-11-10T03:40:01.238Z,1022.79
2022-11-10T03:50:00.176Z,1022.84
2022-11-10T04:00:01.569Z,1023.07
2022-11-10T04:10:01.342Z,1023.12
2022-11-10T04:20:01.026Z,1023.22
2022-11-10T04:30:01.559Z,1023.42
2022-11-10T04:40:01.245Z,1023.58
2022-11-10T04:50:02.266Z,1023.71
2022-11-10T05:00:01.187Z,1023.76
2022-11-10T05:10:01.298Z,1023.86
2022-11-10T05:20:01.044Z,1024.01
2022-11-10T05:30:00.183Z,1024.20
2022-11-10T05:40:00.163Z,1024.39
2022-11-10T05:50:00.161Z,1024.68
2022-11-10T06:00:01.014Z,1024.88
2022-11-10T06:10:01.223Z,1025.11
2022-11-10T06:20:01.008Z,1025.29
2022-11-10T06:30:00.954Z,1025.50
2022-11-10T06:40:01.108Z,1025.77
2022-11-10T06:50:01.421Z,1025.98
2022-11-10T07:00:01.002Z,1026.28
2022-11-10T07:10:05.763Z,1026.54
2022-11-10T07:20:01.076Z,1026.73
2022-11-10T07:30:01.001Z,1026.80
2022-11-10T07:40:01.506Z,1027.01
2022-11-10T08:00:01.483Z,1027.26
2022-11-10T08:10:01.270Z,1027.35
2022-11-10T08:20:01.040Z,1027.38
2022-11-10T08:30:01.087Z,1027.49
2022-11-10T08:40:00.809Z,1027.62
2022-11-10T08:50:01.304Z,1027.73
2022-11-10T09:00:01.547Z,1027.93
2022-11-10T09:10:06.984Z,1028.18
2022-11-10T09:20:02.014Z,1028.34
2022-11-10T09:30:01.433Z,1028.38
2022-11-10T09:40:01.508Z,1028.38
2022-11-10T09:50:01.339Z,1028.63
2022-11-10T10:00:01.011Z,1028.65
2022-11-10T10:10:00.152Z,1028.65
2022-11-10T10:20:00.164Z,1028.53
2022-11-10T10:30:01.866Z,1028.56
2022-11-10T10:40:01.001Z,1028.57
2022-11-10T10:50:00.183Z,1028.66
2022-11-10T11:00:01.044Z,1028.93
2022-11-10T11:10:00.166Z,1028.90
2022-11-10T11:20:01.055Z,1028.84
2022-11-10T11:30:00.178Z,1028.76
2022-11-10T11:40:00.160Z,1028.85
2022-11-10T11:50:01.268Z,1028.97
2022-11-10T12:00:00.101Z,1028.83
2022-11-10T12:10:01.069Z,1028.91
2022-11-10T12:20:01.939Z,1028.87
2022-11-10T12:30:00.175Z,1029.03
2022-11-10T12:40:00.147Z,1029.14
2022-11-10T13:00:01.284Z,1029.43
2022-11-10T13:10:02.816Z,1029.46
2022-11-10T13:20:20.657Z,1029.60
2022-11-10T13:30:02.522Z,1029.63
2022-11-10T13:40:01.122Z,1029.80
2022-11-10T13:50:01.064Z,1029.77
2022-11-10T14:00:01.037Z,1029.77
2022-11-10T14:10:01.270Z,1029.89
2022-11-10T14:20:00.158Z,1029.99
2022-11-10T14:30:00.258Z,1030.28
2022-11-10T14:40:01.286Z,1030.33
2022-11-10T14:50:01.423Z,1030.52
2022-11-10T15:00:01.316Z,1030.65
2022-11-10T15:10:00.280Z,1030.77
2022-11-10T15:20:01.573Z,1030.86
2022-11-10T15:30:00.271Z,1030.95
2022-11-10T15:40:00.146Z,1031.14
2022-11-10T15:50:01.646Z,1031.18
2022-11-10T16:00:00.159Z,1031.19
2022-11-10T16:10:00.266Z,1031.02
2022-11-10T16:20:00.989Z,1031.07
2022-11-10T16:30:01.675Z,1031.21
2022-11-10T16:40:00.223Z,1031.51
2022-11-10T16:50:01.147Z,1031.73
2022-11-10T17:00:02.524Z,1031.79
2022-11-10T17:10:01.535Z,1031.72
2022-11-10T17:20:01.945Z,1031.88
2022-11-10T17:30:00.277Z,1032.05
2022-11-10T17:40:01.792Z,1032.31
2022-11-10T17:50:02.561Z,1032.35
2022-11-10T18:00:01.465Z,1032.34
2022-11-10T18:10:03.393Z,1032.39
2022-11-10T18:20:00.971Z,1032.25
2022-11-10T18:30:00.268Z,1032.19
2022-11-10T18:40:02.840Z,1032.43
2022-11-10T18:50:01.444Z,1032.55
2022-11-10T19:00:01.365Z,1032.61
2022-11-10T19:10:01.157Z,1032.56
2022-11-10T19:20:01.243Z,1032.78
2022-11-10T19:30:01.370Z,1032.75
2022-11-10T19:40:01.777Z,1032.98
2022-11-10T19:50:01.393Z,1032.72
2022-11-10T20:00:00.163Z,1032.81
2022-11-10T20:10:03.390Z,1032.89
2022-11-10T20:20:00.151Z,1032.97
2022-11-10T20:30:01.385Z,1033.19
2022-11-10T20:40:00.173Z,1033.31
2022-11-10T20:50:01.097Z,1033.51
2022-11-10T21:00:00.145Z,1033.55
2022-11-10T21:10:01.186Z,1033.72
2022-11-10T21:20:01.461Z,1033.80
2022-11-10T21:30:01.296Z,1033.71
2022-11-10T21:40:01.205Z,1033.67
2022-11-10T21:50:01.191Z,1033.62
2022-11-10T22:00:00.128Z,1033.63
2022-11-10T22:10:01.148Z,1033.79
2022-11-10T22:20:01.289Z,1033.83
2022-11-10T22:30:02.268Z,1034.08
2022-11-10T22:40:01.310Z,1034.17
2022-11-10T22:50:00.265Z,1034.19
2022-11-10T23:00:01.430Z,1034.21
2022-11-10T23:10:03.109Z,1034.25
2022-11-10T23:20:01.470Z,1034.28
2022-11-10T23:30:00.258Z,1034.55
2022-11-10T23:40:01.275Z,1034.51
2022-11-10T23:50:01.591Z,1034.43
